createdAt,value
2018-05-15T04:09:51.763Z,35
2018-05-15T04:10:17.295Z,40
2018-05-15T04:10:42.712Z,40
2018-05-15T04:11:08.220Z,40
2018-05-15T04:11:33.615Z,40
2018-05-15T04:11:59.080Z,40
2018-05-15T04:12:24.523Z,40
2018-05-15T04:12:49.987Z,40
2018-05-15T04:13:15.502Z,40
2018-05-15T04:13:40.958Z,40
2018-05-15T04:14:06.407Z,40
2018-05-15T04:14:31.945Z,45
2018-05-15T04:14:57.377Z,45
2018-05-15T04:15:22.831Z,45
2018-05-15T04:15:48.333Z,45
2018-05-15T04:16:13.782Z,45
2018-05-15T04:16:39.281Z,45
2018-05-15T04:17:04.684Z,45
2018-05-15T04:17:30.177Z,45
2018-05-15T04:17:55.641Z,45
2018-05-15T04:18:21.047Z,45
2018-05-15T04:18:46.526Z,50
2018-05-15T04:19:12.026Z,50
2018-05-15T04:19:37.449Z,50
2018-05-15T04:20:03.009Z,50
2018-05-15T04:20:28.458Z,50
2018-05-15T04:20:53.914Z,50
2018-05-15T04:21:19.367Z,50
2018-05-15T04:21:44.855Z,50
2018-05-15T04:22:10.307Z,50
2018-05-15T04:22:35.850Z,50
2018-05-15T04:23:01.275Z,55
2018-05-15T04:23:26.795Z,55
2018-05-15T04:23:52.259Z,55
2018-05-15T04:24:17.734Z,55
2018-05-15T04:24:43.202Z,55
2018-05-15T04:25:08.670Z,55
2018-05-15T04:25:34.108Z,55
2018-05-15T04:25:59.577Z,60
2018-05-15T04:26:25.036Z,60
2018-05-15T04:26:50.504Z,60
2018-05-15T04:27:15.931Z,60
2018-05-15T04:27:41.450Z,65
2018-05-15T04:28:06.966Z,65
2018-05-15T04:28:33.245Z,70
2018-05-15T04:28:58.753Z,65
2018-05-15T04:29:24.238Z,65
2018-05-15T04:29:49.760Z,70
2018-05-15T04:30:15.233Z,70
2018-05-15T04:30:40.695Z,70
2018-05-15T04:31:06.128Z,70
2018-05-15T04:31:31.600Z,70
2018-05-15T04:31:57.185Z,75
2018-05-15T04:32:22.591Z,75
2018-05-15T04:32:48.073Z,75
2018-05-15T04:33:13.564Z,75
2018-05-15T04:33:38.999Z,80
2018-05-15T04:34:04.488Z,80
2018-05-15T04:34:29.931Z,80
2018-05-15T04:34:55.377Z,85
2018-05-15T04:35:20.990Z,85
2018-05-15T04:35:46.287Z,85
2018-05-15T04:36:11.761Z,85
2018-05-15T04:36:37.209Z,90
2018-05-15T04:37:02.697Z,90
2018-05-15T04:37:28.180Z,90
2018-05-15T04:37:53.613Z,90
2018-05-15T04:38:19.082Z,95
2018-05-15T04:38:44.554Z,90
2018-05-15T04:39:10.041Z,90
2018-05-15T04:39:35.490Z,90
2018-05-15T04:40:01.010Z,90
2018-05-15T04:40:26.469Z,95
2018-05-15T04:40:51.951Z,95
2018-05-15T04:41:17.489Z,95
2018-05-15T04:41:42.934Z,95
2018-05-15T04:42:08.426Z,95
2018-05-15T04:42:33.884Z,95
2018-05-15T04:42:59.457Z,100
2018-05-15T04:43:25.115Z,100
2018-05-15T04:43:50.918Z,100
2018-05-15T04:44:16.204Z,100
2018-05-15T04:44:41.765Z,100
2018-05-15T04:45:07.624Z,100
2018-05-15T04:45:33.214Z,105
2018-05-15T04:45:58.808Z,105
2018-05-15T04:46:24.737Z,105
2018-05-15T04:46:50.787Z,105
2018-05-15T04:47:16.450Z,105
2018-05-15T04:47:42.057Z,105
2018-05-15T04:48:07.813Z,110
2018-05-15T04:48:33.520Z,110
2018-05-15T04:48:59.072Z,110
2018-05-15T04:49:24.875Z,110
2018-05-15T04:49:50.403Z,110
2018-05-15T04:50:16.051Z,110
2018-05-15T04:50:41.630Z,115
2018-05-15T04:51:07.507Z,115
2018-05-15T04:51:33.017Z,115
2018-05-15T04:51:59.003Z,115
2018-05-15T04:52:24.699Z,115
2018-05-15T04:52:50.347Z,115
2018-05-15T04:53:15.976Z,115
2018-05-15T04:53:41.731Z,125
2018-05-15T04:54:07.782Z,120
2018-05-15T04:54:33.281Z,125
2018-05-15T04:54:59.142Z,125
2018-05-15T04:55:24.841Z,125
2018-05-15T04:55:52.047Z,125
2018-05-15T04:56:17.500Z,130
2018-05-15T04:56:42.943Z,130
2018-05-15T04:57:08.421Z,130
2018-05-15T04:57:33.913Z,130
2018-05-15T04:57:59.440Z,130
2018-05-15T04:58:24.898Z,130
2018-05-15T04:58:50.360Z,130
2018-05-15T04:59:15.864Z,130
2018-05-15T04:59:41.320Z,130
2018-05-15T05:00:06.795Z,135
2018-05-15T05:00:32.322Z,135
2018-05-15T05:00:57.819Z,135
2018-05-15T05:01:23.320Z,135
2018-05-15T05:01:48.816Z,135
2018-05-15T05:02:14.261Z,135
2018-05-15T05:02:39.726Z,135
2018-05-15T05:03:05.198Z,135
2018-05-15T05:03:30.663Z,135
2018-05-15T05:03:56.275Z,135
2018-05-15T05:04:21.727Z,135
2018-05-15T05:04:47.221Z,135
2018-05-15T05:05:12.699Z,135
2018-05-15T05:05:38.102Z,140
2018-05-15T05:06:03.563Z,140
2018-05-15T05:06:29.011Z,140
2018-05-15T05:06:54.508Z,140
2018-05-15T05:07:20.079Z,140
2018-05-15T05:07:45.631Z,140
2018-05-15T05:08:11.320Z,140
2018-05-15T05:08:37.116Z,140
2018-05-15T05:09:02.695Z,140
2018-05-15T05:09:28.175Z,140
2018-05-15T05:09:53.829Z,140
2018-05-15T05:10:19.423Z,140
2018-05-15T05:10:45.456Z,145
2018-05-15T05:11:10.964Z,145
2018-05-15T05:11:36.613Z,145
2018-05-15T05:12:02.032Z,145
2018-05-15T05:12:27.693Z,145
2018-05-15T05:12:53.452Z,145
2018-05-15T05:13:18.955Z,145
2018-05-15T05:13:44.931Z,145
2018-05-15T05:14:10.631Z,150
2018-05-15T05:14:36.353Z,150
2018-05-15T05:15:02.045Z,150
2018-05-15T05:15:27.615Z,150
2018-05-15T05:15:53.278Z,150
2018-05-15T05:16:18.987Z,150
2018-05-15T05:16:44.738Z,155
2018-05-15T05:17:10.626Z,155
2018-05-15T05:17:36.296Z,155
2018-05-15T05:18:02.135Z,155
2018-05-15T05:18:27.856Z,155
2018-05-15T05:18:53.755Z,155
2018-05-15T05:19:19.517Z,155
2018-05-15T05:19:45.113Z,155
2018-05-15T05:20:10.839Z,155
2018-05-15T05:20:36.279Z,160
2018-05-15T05:21:01.978Z,160
2018-05-15T05:21:27.375Z,160
2018-05-15T05:21:52.870Z,160
2018-05-15T05:22:18.319Z,160
2018-05-15T05:22:43.963Z,160
2018-05-15T05:23:10.004Z,160
2018-05-15T05:23:35.852Z,160
2018-05-15T05:24:01.445Z,165
2018-05-15T05:24:27.034Z,165
2018-05-15T05:24:52.595Z,165
2018-05-15T05:25:18.591Z,170
2018-05-15T05:25:44.168Z,165
2018-05-15T05:26:09.857Z,170
2018-05-15T05:26:35.484Z,170
2018-05-15T05:27:01.156Z,165
2018-05-15T05:27:26.820Z,165
2018-05-15T05:27:52.403Z,170
2018-05-15T05:28:18.119Z,170
2018-05-15T05:28:43.780Z,170
2018-05-15T05:29:09.653Z,170
2018-05-15T05:29:35.071Z,170
2018-05-15T05:30:00.912Z,170
2018-05-15T05:30:26.592Z,170
2018-05-15T05:30:52.352Z,175
2018-05-15T05:31:18.024Z,175
2018-05-15T05:31:43.479Z,175
2018-05-15T05:32:09.101Z,175
2018-05-15T05:32:34.801Z,175
2018-05-15T05:33:00.339Z,175
2018-05-15T05:33:25.986Z,175
2018-05-15T05:33:51.818Z,175
2018-05-15T05:34:17.430Z,175
2018-05-15T05:34:43.072Z,175
2018-05-15T05:35:08.938Z,180
2018-05-15T05:35:34.703Z,180
2018-05-15T05:36:00.264Z,180
2018-05-15T05:36:25.814Z,180
2018-05-15T05:36:51.320Z,180
2018-05-15T05:37:16.811Z,180
2018-05-15T05:37:42.297Z,180
2018-05-15T05:38:07.793Z,180
2018-05-15T05:38:33.310Z,185
2018-05-15T05:38:58.775Z,185
2018-05-15T05:39:24.274Z,185
2018-05-15T05:39:49.740Z,185
2018-05-15T05:40:15.220Z,185
2018-05-15T05:40:41.003Z,190
2018-05-15T05:41:06.392Z,190
2018-05-15T05:41:32.112Z,195
2018-05-15T05:41:57.861Z,200
2018-05-15T05:42:23.349Z,205
2018-05-15T05:42:48.976Z,210
2018-05-15T05:43:14.618Z,225
2018-05-15T05:43:40.413Z,235
2018-05-15T05:44:06.030Z,245
2018-05-15T05:44:31.769Z,255
2018-05-15T05:44:57.278Z,260
2018-05-15T05:45:22.941Z,270
2018-05-15T05:45:48.615Z,275
2018-05-15T05:46:14.127Z,275
2018-05-15T05:46:39.708Z,285
2018-05-15T05:47:05.316Z,285
2018-05-15T05:47:31.053Z,290
2018-05-15T05:47:56.549Z,295
2018-05-15T05:48:22.021Z,300
2018-05-15T05:48:47.488Z,295
2018-05-15T05:49:12.971Z,290
2018-05-15T05:49:38.429Z,285
2018-05-15T05:50:03.909Z,285
2018-05-15T05:50:29.365Z,275
2018-05-15T05:50:54.823Z,275
2018-05-15T05:51:20.319Z,270
2018-05-15T05:51:45.745Z,270
2018-05-15T05:52:11.249Z,270
2018-05-15T05:52:36.740Z,275
2018-05-15T05:53:02.234Z,275
2018-05-15T05:53:27.658Z,280
2018-05-15T05:53:53.110Z,285
2018-05-15T05:54:18.639Z,310
2018-05-15T05:54:44.134Z,345
2018-05-15T05:55:09.617Z,390
2018-05-15T05:55:35.043Z,445
2018-05-15T05:56:00.554Z,505
2018-05-15T05:56:26.035Z,580
2018-05-15T05:56:51.586Z,660
2018-05-15T05:57:17.013Z,755
2018-05-15T05:57:42.533Z,805
2018-05-15T05:58:07.921Z,820
2018-05-15T05:58:33.477Z,820
2018-05-15T05:58:58.871Z,790
2018-05-15T05:59:24.388Z,760
2018-05-15T05:59:49.871Z,735
2018-05-15T06:00:15.388Z,750
2018-05-15T06:00:40.817Z,775
2018-05-15T06:01:06.284Z,800
2018-05-15T06:01:31.916Z,820
2018-05-15T06:01:57.410Z,825
2018-05-15T06:02:22.921Z,830
2018-05-15T06:02:48.359Z,840
2018-05-15T06:03:13.880Z,870
2018-05-15T06:03:39.393Z,890
2018-05-15T06:04:04.813Z,915
2018-05-15T06:04:30.311Z,925
2018-05-15T06:04:55.790Z,925
2018-05-15T06:05:21.262Z,925
2018-05-15T06:05:46.745Z,940
2018-05-15T06:06:12.220Z,975
2018-05-15T06:06:37.706Z,1000
2018-05-15T06:07:03.183Z,980
2018-05-15T06:07:28.721Z,970
2018-05-15T06:07:54.114Z,945
2018-05-15T06:08:19.565Z,935
2018-05-15T06:08:45.084Z,935
2018-05-15T06:09:10.579Z,935
2018-05-15T06:09:36.030Z,935
2018-05-15T06:10:01.506Z,935
2018-05-15T06:10:27.050Z,945
2018-05-15T06:10:52.464Z,930
2018-05-15T06:11:17.896Z,910
2018-05-15T06:11:43.417Z,870
2018-05-15T06:12:08.861Z,855
2018-05-15T06:12:34.328Z,870
2018-05-15T06:12:59.810Z,900
2018-05-15T06:13:25.219Z,910
2018-05-15T06:13:50.714Z,880
2018-05-15T06:14:16.199Z,845
2018-05-15T06:14:41.661Z,830
2018-05-15T06:15:07.120Z,860
2018-05-15T06:15:32.622Z,890
2018-05-15T06:15:58.048Z,925
2018-05-15T06:16:23.512Z,960
2018-05-15T06:16:48.962Z,960
2018-05-15T06:17:14.454Z,950
2018-05-15T06:17:39.914Z,960
2018-05-15T06:18:05.383Z,955
2018-05-15T06:18:30.825Z,940
2018-05-15T06:18:56.354Z,930
2018-05-15T06:19:21.784Z,915
2018-05-15T06:19:47.222Z,900
2018-05-15T06:20:12.736Z,895
2018-05-15T06:20:38.247Z,915
2018-05-15T06:21:03.738Z,950
2018-05-15T06:21:29.155Z,1010
2018-05-15T06:21:54.593Z,1015
2018-05-15T06:22:20.073Z,985
2018-05-15T06:22:45.569Z,910
2018-05-15T06:23:11.046Z,730
2018-05-15T06:23:36.427Z,580
2018-05-15T06:24:01.951Z,480
2018-05-15T06:24:27.407Z,395
2018-05-15T06:24:52.870Z,330
2018-05-15T06:25:18.439Z,325
2018-05-15T06:25:43.978Z,315
2018-05-15T06:26:09.462Z,315
2018-05-15T06:26:34.944Z,330
2018-05-15T06:27:00.456Z,345
2018-05-15T06:27:26.124Z,440
2018-05-15T06:27:51.562Z,535
2018-05-15T06:28:17.070Z,680
2018-05-15T06:28:42.567Z,760
2018-05-15T06:29:08.018Z,935
2018-05-15T06:29:33.457Z,1045
2018-05-15T06:29:58.908Z,1150
2018-05-15T06:30:24.424Z,1215
2018-05-15T06:30:49.880Z,1220
2018-05-15T06:31:15.388Z,1195
2018-05-15T06:31:40.840Z,1150
2018-05-15T06:32:06.501Z,1065
2018-05-15T06:32:32.061Z,970
2018-05-15T06:32:57.655Z,945
2018-05-15T06:33:23.119Z,965
2018-05-15T06:33:48.627Z,1025
2018-05-15T06:34:14.344Z,975
2018-05-15T06:34:39.934Z,855
2018-05-15T06:35:05.569Z,700
2018-05-15T06:35:30.989Z,525
2018-05-15T06:35:56.428Z,380
2018-05-15T06:36:22.100Z,305
2018-05-15T06:36:47.624Z,285
2018-05-15T06:37:13.345Z,275
2018-05-15T06:37:38.988Z,270
2018-05-15T06:38:04.606Z,270
2018-05-15T06:38:30.087Z,265
2018-05-15T06:38:55.725Z,265
2018-05-15T06:39:21.916Z,260
2018-05-15T06:39:47.259Z,260
2018-05-15T06:40:12.865Z,255
2018-05-15T06:40:38.448Z,255
2018-05-15T06:41:04.084Z,255
2018-05-15T06:41:29.815Z,255
2018-05-15T06:41:55.331Z,250
2018-05-15T06:42:20.854Z,250
2018-05-15T06:42:46.458Z,250
2018-05-15T06:43:11.948Z,250
2018-05-15T06:43:37.487Z,245
2018-05-15T06:44:03.008Z,250
2018-05-15T06:44:28.525Z,250
2018-05-15T06:44:53.985Z,250
2018-05-15T06:45:19.916Z,250
2018-05-15T06:45:45.412Z,250
2018-05-15T06:46:11.234Z,250
2018-05-15T06:46:36.648Z,250
2018-05-15T06:47:03.258Z,250
2018-05-15T06:47:28.035Z,245
2018-05-15T06:47:53.575Z,245
2018-05-15T06:48:19.483Z,250
2018-05-15T06:48:45.451Z,245
2018-05-15T06:49:11.116Z,250
2018-05-15T06:49:37.197Z,245
2018-05-15T06:50:02.485Z,250
2018-05-15T06:50:28.190Z,245
2018-05-15T06:50:53.990Z,245
2018-05-15T06:51:20.335Z,245
2018-05-15T06:51:46.007Z,245
2018-05-15T06:52:11.413Z,245
2018-05-15T06:52:37.012Z,245
2018-05-15T06:53:02.590Z,245
2018-05-15T06:53:28.910Z,245
2018-05-15T06:53:54.279Z,245
2018-05-15T06:54:20.000Z,245
2018-05-15T06:54:45.432Z,245
2018-05-15T06:55:11.042Z,245
2018-05-15T06:55:36.719Z,245
2018-05-15T06:56:02.670Z,245
2018-05-15T06:56:28.114Z,245
2018-05-15T06:56:53.755Z,245
2018-05-15T06:57:19.432Z,245
2018-05-15T06:57:44.929Z,250
2018-05-15T06:58:10.552Z,250
2018-05-15T06:58:36.073Z,250
2018-05-15T06:59:01.684Z,255
2018-05-15T06:59:27.912Z,255
2018-05-15T06:59:53.111Z,265
2018-05-15T07:00:19.077Z,260
2018-05-15T07:00:45.289Z,265
2018-05-15T07:01:10.640Z,265
2018-05-15T07:01:36.847Z,270
2018-05-15T07:02:03.915Z,270
2018-05-15T07:02:29.234Z,275
2018-05-15T07:02:55.289Z,275
2018-05-15T07:03:21.569Z,280
2018-05-15T07:03:49.004Z,285
2018-05-15T07:04:14.461Z,280
2018-05-15T07:04:40.417Z,285
2018-05-15T07:05:05.708Z,285
2018-05-15T07:05:32.387Z,290
2018-05-15T07:05:58.234Z,295
2018-05-15T07:06:42.012Z,305
2018-05-15T07:07:23.566Z,320
2018-05-15T07:07:54.059Z,350
2018-05-15T07:08:23.530Z,445
2018-05-15T07:08:49.246Z,550
2018-05-15T07:09:14.707Z,675
2018-05-15T07:09:40.299Z,795
2018-05-15T07:10:05.769Z,920
2018-05-15T07:10:31.352Z,1035
2018-05-15T07:11:03.252Z,1180
2018-05-15T07:11:40.241Z,1205
2018-05-15T07:12:07.112Z,1210
2018-05-15T07:12:32.664Z,1230
2018-05-15T07:12:58.145Z,1250
2018-05-15T07:13:25.517Z,1240
2018-05-15T07:13:51.599Z,1230
2018-05-15T07:14:17.120Z,1230
2018-05-15T07:14:42.571Z,1225
2018-05-15T07:15:08.287Z,1225
2018-05-15T07:15:33.893Z,1245
2018-05-15T07:15:59.860Z,1255
2018-05-15T07:16:25.426Z,1265
2018-05-15T07:16:50.939Z,1265
2018-05-15T07:17:16.479Z,1245
2018-05-15T07:17:41.967Z,1245
2018-05-15T07:18:07.477Z,1245
2018-05-15T07:18:33.028Z,1255
2018-05-15T07:18:58.626Z,1250
2018-05-15T07:19:24.134Z,1205
2018-05-15T07:19:49.769Z,1125
2018-05-15T07:20:15.769Z,1065
2018-05-15T07:20:41.104Z,1055
2018-05-15T07:21:06.901Z,1105
2018-05-15T07:21:32.196Z,1190
2018-05-15T07:21:57.626Z,1260
2018-05-15T07:22:23.265Z,1300
2018-05-15T07:22:48.650Z,1345
2018-05-15T07:23:14.360Z,1360
2018-05-15T07:23:39.749Z,1355
2018-05-15T07:24:07.581Z,1315
2018-05-15T07:24:32.443Z,1290
2018-05-15T07:24:58.044Z,1265
2018-05-15T07:25:23.438Z,1250
2018-05-15T07:25:48.993Z,1260
2018-05-15T07:26:14.940Z,1255
2018-05-15T07:26:40.601Z,1230
2018-05-15T07:27:07.060Z,1230
2018-05-15T07:27:32.697Z,1250
2018-05-15T07:27:58.281Z,1305
2018-05-15T07:28:24.525Z,1355
2018-05-15T07:28:49.634Z,1400
2018-05-15T07:29:15.342Z,1420
2018-05-15T07:29:40.951Z,1425
2018-05-15T07:30:06.357Z,1415
2018-05-15T07:30:32.072Z,1405
2018-05-15T07:30:57.518Z,1405
2018-05-15T07:31:23.225Z,1425
2018-05-15T07:31:48.788Z,1460
2018-05-15T07:32:14.264Z,1485
2018-05-15T07:32:39.779Z,1480
2018-05-15T07:33:05.373Z,1435
2018-05-15T07:33:30.987Z,1365
2018-05-15T07:33:56.539Z,1335
2018-05-15T07:34:21.970Z,1365
2018-05-15T07:34:47.675Z,1420
2018-05-15T07:35:13.082Z,1460
2018-05-15T07:35:38.695Z,1490
2018-05-15T07:36:04.181Z,1525
2018-05-15T07:36:29.664Z,1535
2018-05-15T07:36:55.696Z,1515
2018-05-15T07:37:21.182Z,1490
2018-05-15T07:37:46.876Z,1430
2018-05-15T07:38:12.277Z,1380
2018-05-15T07:38:38.016Z,1345
2018-05-15T07:39:03.355Z,1335
2018-05-15T07:39:29.033Z,1350
2018-05-15T07:39:54.646Z,1385
2018-05-15T07:40:20.092Z,1450
2018-05-15T07:40:45.716Z,1465
2018-05-15T07:41:11.141Z,1535
2018-05-15T07:41:36.875Z,1530
2018-05-15T07:42:02.612Z,1480
2018-05-15T07:42:28.215Z,1420
2018-05-15T07:42:53.619Z,1385
2018-05-15T07:43:19.334Z,1380
2018-05-15T07:43:44.802Z,1310
2018-05-15T07:44:10.416Z,1160
2018-05-15T07:44:35.974Z,1080
2018-05-15T07:45:01.549Z,1215
2018-05-15T07:45:27.358Z,1170
2018-05-15T07:45:53.282Z,1120
2018-05-15T07:46:19.149Z,910
2018-05-15T07:46:44.649Z,695
2018-05-15T07:47:10.298Z,480
2018-05-15T07:47:35.758Z,340
2018-05-15T07:48:01.521Z,285
2018-05-15T07:48:26.887Z,270
2018-05-15T07:48:52.477Z,260
2018-05-15T07:49:18.136Z,255
2018-05-15T07:49:43.775Z,250
2018-05-15T07:50:09.592Z,250
2018-05-15T07:50:35.197Z,250
2018-05-15T07:51:00.556Z,245
2018-05-15T07:51:26.284Z,245
2018-05-15T07:51:51.786Z,240
2018-05-15T07:52:17.443Z,240
2018-05-15T07:52:43.093Z,240
2018-05-15T07:53:08.610Z,240
2018-05-15T07:53:34.144Z,240
2018-05-15T07:53:59.767Z,235
2018-05-15T07:54:25.295Z,240
2018-05-15T07:54:50.794Z,245
2018-05-15T07:55:16.534Z,240
2018-05-15T07:55:42.014Z,235
2018-05-15T07:56:07.714Z,235
2018-05-15T07:56:33.318Z,235
2018-05-15T07:56:58.866Z,235
2018-05-15T07:57:24.352Z,230
2018-05-15T07:57:50.061Z,230
2018-05-15T07:58:15.590Z,230
2018-05-15T07:58:41.424Z,230
2018-05-15T07:59:06.924Z,230
2018-05-15T07:59:32.502Z,230
2018-05-15T07:59:58.234Z,230
2018-05-15T08:00:23.733Z,230
2018-05-15T08:00:49.248Z,230
2018-05-15T08:01:15.039Z,230
2018-05-15T08:01:40.942Z,225
2018-05-15T08:02:06.889Z,225
2018-05-15T08:02:32.235Z,225
2018-05-15T08:02:57.759Z,220
2018-05-15T08:03:23.299Z,225
2018-05-15T08:03:48.847Z,225
2018-05-15T08:04:14.772Z,220
2018-05-15T08:04:40.244Z,220
2018-05-15T08:05:05.887Z,225
2018-05-15T08:05:32.107Z,220
2018-05-15T08:05:57.604Z,215
2018-05-15T08:06:22.891Z,215
2018-05-15T08:06:48.690Z,215
2018-05-15T08:07:14.668Z,215
2018-05-15T08:07:40.087Z,215
2018-05-15T08:08:05.546Z,215
2018-05-15T08:08:32.147Z,215
2018-05-15T08:08:57.072Z,215
2018-05-15T08:09:23.093Z,215
2018-05-15T08:09:48.471Z,215
2018-05-15T08:10:14.102Z,215
2018-05-15T08:10:40.395Z,215
2018-05-15T08:11:05.799Z,210
2018-05-15T08:11:31.428Z,210
2018-05-15T08:11:56.797Z,215
2018-05-15T08:12:22.491Z,215
2018-05-15T08:12:48.336Z,215
2018-05-15T08:13:14.083Z,215
2018-05-15T08:13:39.863Z,215
2018-05-15T08:14:05.850Z,215
2018-05-15T08:14:31.148Z,215
2018-05-15T08:14:56.767Z,215
2018-05-15T08:15:23.260Z,215
2018-05-15T08:15:48.638Z,215
2018-05-15T08:16:14.387Z,215
2018-05-15T08:16:39.955Z,215
2018-05-15T08:17:05.677Z,215
2018-05-15T08:17:31.275Z,215
2018-05-15T08:17:56.828Z,210
2018-05-15T08:18:22.165Z,210
2018-05-15T08:18:47.846Z,215
2018-05-15T08:19:13.602Z,215
2018-05-15T08:19:39.141Z,215
2018-05-15T08:20:04.823Z,215
2018-05-15T08:20:30.357Z,215
2018-05-15T08:20:56.273Z,220
2018-05-15T08:21:21.468Z,220
2018-05-15T08:21:46.894Z,225
2018-05-15T08:22:12.449Z,215
2018-05-15T08:22:38.038Z,220
2018-05-15T08:23:03.548Z,220
2018-05-15T08:23:28.993Z,220
2018-05-15T08:23:54.826Z,220
2018-05-15T08:24:20.062Z,220
2018-05-15T08:24:46.366Z,225
2018-05-15T08:25:11.982Z,220
2018-05-15T08:25:37.588Z,225
2018-05-15T08:26:03.060Z,235
2018-05-15T08:26:28.698Z,235
2018-05-15T08:26:54.189Z,240
2018-05-15T08:27:19.955Z,240
2018-05-15T08:27:46.324Z,245
2018-05-15T08:28:11.760Z,245
2018-05-15T08:28:37.308Z,250
2018-05-15T08:29:02.847Z,250
2018-05-15T08:29:28.355Z,250
2018-05-15T08:29:54.026Z,245
2018-05-15T08:30:19.626Z,245
2018-05-15T08:30:44.932Z,245
2018-05-15T08:31:10.429Z,245
2018-05-15T08:31:35.935Z,245
2018-05-15T08:32:01.476Z,250
2018-05-15T08:32:27.246Z,250
2018-05-15T08:32:52.752Z,250
2018-05-15T08:33:18.241Z,250
2018-05-15T08:33:43.835Z,245
2018-05-15T08:34:09.695Z,245
2018-05-15T08:34:35.018Z,245
2018-05-15T08:35:00.846Z,235
2018-05-15T08:35:26.703Z,235
2018-05-15T08:35:51.981Z,230
2018-05-15T08:36:17.423Z,240
2018-05-15T08:36:42.963Z,230
2018-05-15T08:37:08.769Z,225
2018-05-15T08:37:34.516Z,225
2018-05-15T08:37:59.795Z,230
2018-05-15T08:38:25.249Z,230
2018-05-15T08:38:50.809Z,235
2018-05-15T08:39:16.381Z,235
2018-05-15T08:39:41.909Z,240
2018-05-15T08:40:07.545Z,240
2018-05-15T08:40:33.656Z,240
2018-05-15T08:40:59.369Z,240
2018-05-15T08:41:24.994Z,240
2018-05-15T08:41:52.661Z,240
2018-05-15T08:42:18.635Z,240
2018-05-15T08:42:46.643Z,240
2018-05-15T08:43:13.638Z,235
2018-05-15T08:43:42.134Z,240
2018-05-15T08:44:08.634Z,235
2018-05-15T08:44:37.637Z,230
2018-05-15T08:45:07.140Z,235
2018-05-15T08:45:35.135Z,235
2018-05-15T08:46:05.139Z,235
2018-05-15T08:53:45.176Z,220
2018-05-15T08:54:10.521Z,215
2018-05-15T08:54:36.112Z,220
2018-05-15T08:55:01.679Z,220
2018-05-15T08:55:27.282Z,215
2018-05-15T08:55:52.944Z,215
2018-05-15T08:56:18.561Z,215
2018-05-15T08:56:44.088Z,220
2018-05-15T08:57:09.801Z,215
2018-05-15T08:57:35.338Z,215
2018-05-15T08:58:00.934Z,215
2018-05-15T08:58:26.481Z,215
2018-05-15T08:58:51.952Z,210
2018-05-15T08:59:17.394Z,215
2018-05-15T08:59:42.897Z,215
2018-05-15T09:00:08.462Z,215
2018-05-15T09:00:34.284Z,215
2018-05-15T09:00:59.554Z,210
2018-05-15T09:01:25.434Z,210
2018-05-15T09:01:51.204Z,215
2018-05-15T09:02:17.087Z,215
2018-05-15T09:02:42.944Z,210
2018-05-15T09:03:08.502Z,210
2018-05-15T09:03:34.459Z,210
2018-05-15T09:04:00.182Z,210
2018-05-15T09:04:25.868Z,210
2018-05-15T09:04:51.705Z,205
2018-05-15T09:05:17.124Z,205
2018-05-15T09:05:42.669Z,205
2018-05-15T09:06:08.131Z,200
2018-05-15T09:06:33.631Z,200
2018-05-15T09:06:59.315Z,200
2018-05-15T09:07:24.804Z,195
2018-05-15T09:07:50.292Z,195
2018-05-15T09:08:15.742Z,195
2018-05-15T09:08:41.244Z,195
2018-05-15T09:09:06.681Z,200
2018-05-15T09:09:32.121Z,200
2018-05-15T09:09:57.612Z,200
2018-05-15T09:10:23.128Z,195
2018-05-15T09:10:48.584Z,200
2018-05-15T09:11:14.133Z,200
2018-05-15T09:11:39.716Z,200
2018-05-15T09:12:05.219Z,200
2018-05-15T09:12:30.839Z,200
2018-05-15T09:12:56.330Z,200
2018-05-15T09:13:21.827Z,195
2018-05-15T09:13:47.391Z,195
2018-05-15T09:14:12.971Z,195
2018-05-15T09:14:38.322Z,195
2018-05-15T09:15:04.139Z,195
2018-05-15T09:15:29.631Z,195
2018-05-15T09:15:55.084Z,200
2018-05-15T09:16:20.735Z,195
2018-05-15T09:16:46.174Z,195
2018-05-15T09:17:11.681Z,195
2018-05-15T09:17:37.316Z,190
2018-05-15T09:18:02.801Z,190
2018-05-15T09:18:28.312Z,190
2018-05-15T09:18:53.915Z,190
2018-05-15T09:19:19.506Z,190
2018-05-15T09:19:45.015Z,190
2018-05-15T09:20:10.404Z,195
2018-05-15T09:20:35.820Z,190
2018-05-15T09:21:01.573Z,190
2018-05-15T09:21:27.363Z,190
2018-05-15T09:21:52.861Z,195
2018-05-15T09:22:18.533Z,195
2018-05-15T09:22:43.999Z,190
2018-05-15T09:23:09.539Z,190
2018-05-15T09:23:35.064Z,190
2018-05-15T09:24:00.549Z,190
2018-05-15T09:24:26.064Z,190
2018-05-15T09:24:51.498Z,190
2018-05-15T09:25:17.812Z,190
2018-05-15T09:25:43.972Z,195
2018-05-15T09:26:09.534Z,190
2018-05-15T09:26:35.060Z,195
2018-05-15T09:27:00.655Z,195
2018-05-15T09:27:26.150Z,200
2018-05-15T09:27:51.639Z,195
2018-05-15T09:28:17.219Z,200
2018-05-15T09:28:42.694Z,200
2018-05-15T09:29:08.314Z,200
2018-05-15T09:29:33.741Z,200
2018-05-15T09:29:59.406Z,200
2018-05-15T09:30:24.972Z,200
2018-05-15T09:30:50.451Z,200
2018-05-15T09:31:15.980Z,200
2018-05-15T09:31:41.484Z,200
2018-05-15T09:32:06.917Z,200
2018-05-15T09:32:32.381Z,200
2018-05-15T09:32:58.146Z,200
2018-05-15T09:33:23.878Z,200
2018-05-15T09:33:49.714Z,200
2018-05-15T09:34:15.693Z,200
2018-05-15T09:34:41.459Z,200
2018-05-15T09:35:06.970Z,200
2018-05-15T09:35:32.591Z,205
2018-05-15T09:35:58.530Z,205
2018-05-15T09:36:24.567Z,205
2018-05-15T09:36:50.215Z,215
2018-05-15T09:37:16.281Z,205
2018-05-15T09:37:41.995Z,210
2018-05-15T09:38:07.270Z,210
2018-05-15T09:38:32.730Z,210
2018-05-15T09:38:58.213Z,215
2018-05-15T09:39:23.724Z,215
2018-05-15T09:39:49.171Z,215
2018-05-15T09:40:14.630Z,200
2018-05-15T09:40:40.148Z,195
2018-05-15T09:41:05.618Z,190
2018-05-15T09:41:31.176Z,195
2018-05-15T09:41:56.628Z,190
2018-05-15T09:42:22.020Z,190
2018-05-15T09:42:47.482Z,190
2018-05-15T09:43:12.909Z,185
2018-05-15T09:43:38.373Z,195
2018-05-15T09:44:03.833Z,205
2018-05-15T09:44:29.324Z,205
2018-05-15T09:44:54.824Z,210
2018-05-15T09:45:20.307Z,215
2018-05-15T09:45:45.744Z,210
2018-05-15T09:46:11.218Z,205
2018-05-15T09:46:36.753Z,200
2018-05-15T09:47:02.294Z,200
2018-05-15T09:47:27.792Z,200
2018-05-15T09:47:53.552Z,200
2018-05-15T09:48:19.309Z,205
2018-05-15T09:48:44.897Z,200
2018-05-15T09:49:10.870Z,195
2018-05-15T09:49:36.329Z,190
2018-05-15T09:50:01.830Z,195
2018-05-15T09:50:27.313Z,190
2018-05-15T09:50:52.751Z,190
2018-05-15T09:51:18.257Z,200
2018-05-15T09:51:43.678Z,200
2018-05-15T09:52:09.134Z,205
2018-05-15T09:52:34.660Z,205
2018-05-15T09:53:00.112Z,205
2018-05-15T09:53:25.571Z,205
2018-05-15T09:53:51.013Z,205
2018-05-15T09:54:16.512Z,210
2018-05-15T09:54:41.970Z,210
2018-05-15T09:55:07.650Z,210
2018-05-15T09:55:32.992Z,205
2018-05-15T09:55:58.433Z,205
2018-05-15T09:56:23.901Z,205
2018-05-15T09:56:49.407Z,205
2018-05-15T09:57:14.896Z,205
2018-05-15T09:57:40.283Z,210
2018-05-15T09:58:05.749Z,210
2018-05-15T09:58:31.214Z,210
2018-05-15T09:58:56.709Z,210
2018-05-15T09:59:22.184Z,210
2018-05-15T09:59:47.604Z,210
2018-05-15T10:00:13.101Z,210
2018-05-15T10:00:38.549Z,210
2018-05-15T10:01:04.025Z,205
2018-05-15T10:01:29.515Z,205
2018-05-15T10:01:54.976Z,190
2018-05-15T10:02:20.409Z,195
2018-05-15T10:02:45.900Z,200
2018-05-15T10:03:11.376Z,205
2018-05-15T10:03:36.907Z,205
2018-05-15T10:04:02.358Z,200
2018-05-15T10:04:27.820Z,200
2018-05-15T10:04:53.300Z,195
2018-05-15T10:05:18.778Z,200
2018-05-15T10:05:44.257Z,200
2018-05-15T10:06:09.721Z,205
2018-05-15T10:06:35.166Z,200
2018-05-15T10:07:00.693Z,200
2018-05-15T10:07:26.225Z,200
2018-05-15T10:07:51.634Z,200
2018-05-15T10:08:17.371Z,205
2018-05-15T10:08:43.174Z,205
2018-05-15T10:09:08.862Z,205
2018-05-15T10:09:34.343Z,205
2018-05-15T10:10:00.228Z,205
2018-05-15T10:10:26.157Z,210